sensor_id;sensor_type;location;lat;lon;timestamp;P1;durP1;ratioP1;P2;durP2;ratioP2
31182;SDS011;17813;0.000;0.000;2023-12-20T00:00:43;1.67;;;1.57;;
31182;SDS011;17813;0.000;0.000;2023-12-20T00:03:19;1.50;;;1.40;;
31182;SDS011;17813;0.000;0.000;2023-12-20T00:06:02;1.70;;;1.60;;
31182;SDS011;17813;0.000;0.000;2023-12-20T00:08:36;4.03;;;1.57;;
31182;SDS011;17813;0.000;0.000;2023-12-20T00:11:09;1.73;;;1.63;;
31182;SDS011;17813;0.000;0.000;2023-12-20T00:13:50;1.60;;;1.50;;
31182;SDS011;17813;0.000;0.000;2023-12-20T00:16:24;1.50;;;1.40;;
31182;SDS011;17813;0.000;0.000;2023-12-20T00:19:01;1.60;;;1.50;;
31182;SDS011;17813;0.000;0.000;2023-12-20T00:21:28;1.50;;;1.40;;
31182;SDS011;17813;0.000;0.000;2023-12-20T00:23:59;1.50;;;1.40;;
31182;SDS011;17813;0.000;0.000;2023-12-20T00:26:48;1.40;;;1.30;;
31182;SDS011;17813;0.000;0.000;2023-12-20T00:29:22;1.30;;;1.20;;
31182;SDS011;17813;0.000;0.000;2023-12-20T00:32:11;1.53;;;1.43;;
31182;SDS011;17813;0.000;0.000;2023-12-20T00:34:51;1.40;;;1.30;;
31182;SDS011;17813;0.000;0.000;2023-12-20T00:37:37;1.10;;;1.10;;
31182;SDS011;17813;0.000;0.000;2023-12-20T00:40:17;1.20;;;1.20;;
31182;SDS011;17813;0.000;0.000;2023-12-20T00:43:05;1.40;;;1.30;;
31182;SDS011;17813;0.000;0.000;2023-12-20T00:45:38;1.20;;;0.90;;
31182;SDS011;17813;0.000;0.000;2023-12-20T00:48:16;2.70;;;1.20;;
31182;SDS011;17813;0.000;0.000;2023-12-20T00:50:52;0.93;;;0.93;;
31182;SDS011;17813;0.000;0.000;2023-12-20T00:53:37;1.00;;;1.00;;
31182;SDS011;17813;0.000;0.000;2023-12-20T00:56:12;1.20;;;1.10;;
31182;SDS011;17813;0.000;0.000;2023-12-20T00:58:40;1.00;;;1.00;;
31182;SDS011;17813;0.000;0.000;2023-12-20T01:01:08;1.20;;;1.10;;
31182;SDS011;17813;0.000;0.000;2023-12-20T01:03:42;0.97;;;0.97;;
31182;SDS011;17813;0.000;0.000;2023-12-20T01:06:16;0.90;;;0.90;;
31182;SDS011;17813;0.000;0.000;2023-12-20T01:08:43;0.90;;;0.90;;
31182;SDS011;17813;0.000;0.000;2023-12-20T01:11:27;0.80;;;0.80;;
31182;SDS011;17813;0.000;0.000;2023-12-20T01:14:19;0.70;;;0.70;;
31182;SDS011;17813;0.000;0.000;2023-12-20T01:16:53;1.00;;;0.90;;
31182;SDS011;17813;0.000;0.000;2023-12-20T01:19:41;0.50;;;0.50;;
31182;SDS011;17813;0.000;0.000;2023-12-20T01:22:13;0.80;;;0.80;;
31182;SDS011;17813;0.000;0.000;2023-12-20T01:24:40;0.53;;;0.53;;
31182;SDS011;17813;0.000;0.000;2023-12-20T01:27:24;0.93;;;0.63;;
31182;SDS011;17813;0.000;0.000;2023-12-20T01:30:10;0.50;;;0.50;;
31182;SDS011;17813;0.000;0.000;2023-12-20T01:32:44;0.60;;;0.50;;
31182;SDS011;17813;0.000;0.000;2023-12-20T01:35:12;0.30;;;0.30;;
31182;SDS011;17813;0.000;0.000;2023-12-20T01:37:40;0.60;;;0.60;;
31182;SDS011;17813;0.000;0.000;2023-12-20T01:40:08;0.50;;;0.50;;
31182;SDS011;17813;0.000;0.000;2023-12-20T01:42:42;0.50;;;0.50;;
31182;SDS011;17813;0.000;0.000;2023-12-20T01:45:28;0.43;;;0.43;;
31182;SDS011;17813;0.000;0.000;2023-12-20T01:48:04;0.40;;;0.40;;
31182;SDS011;17813;0.000;0.000;2023-12-20T01:50:36;0.30;;;0.30;;
31182;SDS011;17813;0.000;0.000;2023-12-20T01:53:04;0.37;;;0.37;;
31182;SDS011;17813;0.000;0.000;2023-12-20T01:55:36;0.33;;;0.33;;
31182;SDS011;17813;0.000;0.000;2023-12-20T01:58:18;0.30;;;0.30;;
31182;SDS011;17813;0.000;0.000;2023-12-20T02:00:54;0.30;;;0.30;;
31182;SDS011;17813;0.000;0.000;2023-12-20T02:03:34;0.27;;;0.27;;
31182;SDS011;17813;0.000;0.000;2023-12-20T02:06:31;0.30;;;0.30;;
31182;SDS011;17813;0.000;0.000;2023-12-20T02:09:10;0.30;;;0.30;;
31182;SDS011;17813;0.000;0.000;2023-12-20T02:11:38;0.40;;;0.20;;
31182;SDS011;17813;0.000;0.000;2023-12-20T02:14:23;0.20;;;0.20;;
31182;SDS011;17813;0.000;0.000;2023-12-20T02:17:02;0.20;;;0.20;;
31182;SDS011;17813;0.000;0.000;2023-12-20T02:19:29;0.33;;;0.33;;
31182;SDS011;17813;0.000;0.000;2023-12-20T02:22:11;0.13;;;0.13;;
31182;SDS011;17813;0.000;0.000;2023-12-20T02:24:42;0.20;;;0.20;;
31182;SDS011;17813;0.000;0.000;2023-12-20T02:27:09;0.20;;;0.20;;
31182;SDS011;17813;0.000;0.000;2023-12-20T02:29:55;0.53;;;0.30;;
31182;SDS011;17813;0.000;0.000;2023-12-20T02:32:40;0.67;;;0.40;;
31182;SDS011;17813;0.000;0.000;2023-12-20T02:35:32;0.30;;;0.30;;
31182;SDS011;17813;0.000;0.000;2023-12-20T02:38:15;0.27;;;0.20;;
31182;SDS011;17813;0.000;0.000;2023-12-20T02:40:47;0.30;;;0.30;;
31182;SDS011;17813;0.000;0.000;2023-12-20T02:43:20;0.63;;;0.33;;
31182;SDS011;17813;0.000;0.000;2023-12-20T02:45:57;0.20;;;0.20;;
31182;SDS011;17813;0.000;0.000;2023-12-20T02:48:24;0.30;;;0.30;;
31182;SDS011;17813;0.000;0.000;2023-12-20T02:51:09;0.43;;;0.30;;
31182;SDS011;17813;0.000;0.000;2023-12-20T02:53:54;0.20;;;0.20;;
31182;SDS011;17813;0.000;0.000;2023-12-20T02:56:22;0.43;;;0.20;;
31182;SDS011;17813;0.000;0.000;2023-12-20T02:59:06;0.20;;;0.20;;
31182;SDS011;17813;0.000;0.000;2023-12-20T03:01:50;0.23;;;0.20;;
31182;SDS011;17813;0.000;0.000;2023-12-20T03:04:33;0.30;;;0.30;;
31182;SDS011;17813;0.000;0.000;2023-12-20T03:07:03;0.30;;;0.30;;
31182;SDS011;17813;0.000;0.000;2023-12-20T03:09:52;0.13;;;0.13;;
31182;SDS011;17813;0.000;0.000;2023-12-20T03:12:19;0.10;;;0.10;;
31182;SDS011;17813;0.000;0.000;2023-12-20T03:14:57;0.20;;;0.20;;
31182;SDS011;17813;0.000;0.000;2023-12-20T03:17:43;0.27;;;0.27;;
31182;SDS011;17813;0.000;0.000;2023-12-20T03:20:22;0.30;;;0.27;;
31182;SDS011;17813;0.000;0.000;2023-12-20T03:23:04;0.20;;;0.20;;
31182;SDS011;17813;0.000;0.000;2023-12-20T03:25:33;0.17;;;0.17;;
31182;SDS011;17813;0.000;0.000;2023-12-20T03:28:17;0.20;;;0.20;;
31182;SDS011;17813;0.000;0.000;2023-12-20T03:31:09;0.10;;;0.10;;
31182;SDS011;17813;0.000;0.000;2023-12-20T03:33:39;0.40;;;0.20;;
31182;SDS011;17813;0.000;0.000;2023-12-20T03:36:25;0.60;;;0.30;;
31182;SDS011;17813;0.000;0.000;2023-12-20T03:39:10;0.10;;;0.10;;
31182;SDS011;17813;0.000;0.000;2023-12-20T03:41:37;0.17;;;0.17;;
31182;SDS011;17813;0.000;0.000;2023-12-20T03:44:14;0.20;;;0.20;;
31182;SDS011;17813;0.000;0.000;2023-12-20T03:46:41;0.10;;;0.10;;
31182;SDS011;17813;0.000;0.000;2023-12-20T03:49:22;0.20;;;0.20;;
31182;SDS011;17813;0.000;0.000;2023-12-20T03:52:08;0.20;;;0.20;;
31182;SDS011;17813;0.000;0.000;2023-12-20T03:54:35;0.10;;;0.10;;
31182;SDS011;17813;0.000;0.000;2023-12-20T03:57:02;0.20;;;0.20;;
31182;SDS011;17813;0.000;0.000;2023-12-20T03:59:42;0.30;;;0.30;;
31182;SDS011;17813;0.000;0.000;2023-12-20T04:02:26;0.20;;;0.20;;
31182;SDS011;17813;0.000;0.000;2023-12-20T04:05:05;0.50;;;0.30;;
31182;SDS011;17813;0.000;0.000;2023-12-20T04:07:37;0.23;;;0.23;;
31182;SDS011;17813;0.000;0.000;2023-12-20T04:10:19;0.20;;;0.20;;
31182;SDS011;17813;0.000;0.000;2023-12-20T04:12:54;0.30;;;0.20;;
31182;SDS011;17813;0.000;0.000;2023-12-20T04:15:33;0.43;;;0.30;;
31182;SDS011;17813;0.000;0.000;2023-12-20T04:18:00;0.37;;;0.37;;
31182;SDS011;17813;0.000;0.000;2023-12-20T04:20:30;0.30;;;0.30;;
31182;SDS011;17813;0.000;0.000;2023-12-20T04:23:05;0.30;;;0.30;;
31182;SDS011;17813;0.000;0.000;2023-12-20T04:25:37;0.30;;;0.30;;
31182;SDS011;17813;0.000;0.000;2023-12-20T04:28:33;0.50;;;0.30;;
31182;SDS011;17813;0.000;0.000;2023-12-20T04:31:18;0.20;;;0.20;;
31182;SDS011;17813;0.000;0.000;2023-12-20T04:33:48;0.43;;;0.30;;
31182;SDS011;17813;0.000;0.000;2023-12-20T04:36:32;0.20;;;0.20;;
31182;SDS011;17813;0.000;0.000;2023-12-20T04:39:20;0.20;;;0.20;;
31182;SDS011;17813;0.000;0.000;2023-12-20T04:42:01;1.27;;;0.40;;
31182;SDS011;17813;0.000;0.000;2023-12-20T04:44:40;0.30;;;0.30;;
31182;SDS011;17813;0.000;0.000;2023-12-20T04:47:22;0.40;;;0.30;;
31182;SDS011;17813;0.000;0.000;2023-12-20T04:50:09;1.03;;;0.23;;
31182;SDS011;17813;0.000;0.000;2023-12-20T04:52:50;1.37;;;0.30;;
31182;SDS011;17813;0.000;0.000;2023-12-20T04:55:32;0.17;;;0.17;;
31182;SDS011;17813;0.000;0.000;2023-12-20T04:58:20;0.30;;;0.23;;
31182;SDS011;17813;0.000;0.000;2023-12-20T05:01:13;1.60;;;1.50;;
31182;SDS011;17813;0.000;0.000;2023-12-20T05:03:49;1.10;;;1.00;;
31182;SDS011;17813;0.000;0.000;2023-12-20T05:06:25;1.07;;;0.80;;
31182;SDS011;17813;0.000;0.000;2023-12-20T05:09:11;0.50;;;0.50;;
31182;SDS011;17813;0.000;0.000;2023-12-20T05:11:47;0.87;;;0.47;;
31182;SDS011;17813;0.000;0.000;2023-12-20T05:14:32;0.30;;;0.30;;
31182;SDS011;17813;0.000;0.000;2023-12-20T05:17:07;0.30;;;0.30;;
31182;SDS011;17813;0.000;0.000;2023-12-20T05:19:53;0.20;;;0.20;;
31182;SDS011;17813;0.000;0.000;2023-12-20T05:22:31;0.30;;;0.20;;
31182;SDS011;17813;0.000;0.000;2023-12-20T05:25:12;0.10;;;0.10;;
31182;SDS011;17813;0.000;0.000;2023-12-20T05:27:59;0.97;;;0.30;;
31182;SDS011;17813;0.000;0.000;2023-12-20T05:30:29;0.30;;;0.30;;
31182;SDS011;17813;0.000;0.000;2023-12-20T05:33:06;0.30;;;0.30;;
31182;SDS011;17813;0.000;0.000;2023-12-20T05:35:44;1.33;;;0.30;;
31182;SDS011;17813;0.000;0.000;2023-12-20T05:38:28;0.30;;;0.30;;
31182;SDS011;17813;0.000;0.000;2023-12-20T05:40:55;0.20;;;0.20;;
31182;SDS011;17813;0.000;0.000;2023-12-20T05:43:44;0.30;;;0.30;;
31182;SDS011;17813;0.000;0.000;2023-12-20T05:46:28;0.20;;;0.20;;
31182;SDS011;17813;0.000;0.000;2023-12-20T05:49:03;0.30;;;0.30;;
31182;SDS011;17813;0.000;0.000;2023-12-20T05:51:44;0.20;;;0.20;;
31182;SDS011;17813;0.000;0.000;2023-12-20T05:54:40;1.00;;;0.43;;
31182;SDS011;17813;0.000;0.000;2023-12-20T05:57:26;0.90;;;0.40;;
31182;SDS011;17813;0.000;0.000;2023-12-20T06:00:08;0.50;;;0.37;;
31182;SDS011;17813;0.000;0.000;2023-12-20T06:02:56;0.30;;;0.30;;
31182;SDS011;17813;0.000;0.000;2023-12-20T06:05:37;0.50;;;0.50;;
31182;SDS011;17813;0.000;0.000;2023-12-20T06:08:13;1.13;;;0.50;;
31182;SDS011;17813;0.000;0.000;2023-12-20T06:10:57;0.87;;;0.50;;
31182;SDS011;17813;0.000;0.000;2023-12-20T06:13:34;0.60;;;0.50;;
31182;SDS011;17813;0.000;0.000;2023-12-20T06:16:15;1.63;;;0.50;;
31182;SDS011;17813;0.000;0.000;2023-12-20T06:18:48;0.60;;;0.50;;
31182;SDS011;17813;0.000;0.000;2023-12-20T06:21:29;0.50;;;0.50;;
31182;SDS011;17813;0.000;0.000;2023-12-20T06:24:03;0.80;;;0.50;;
31182;SDS011;17813;0.000;0.000;2023-12-20T06:26:54;1.43;;;0.50;;
31182;SDS011;17813;0.000;0.000;2023-12-20T06:29:36;0.40;;;0.40;;
31182;SDS011;17813;0.000;0.000;2023-12-20T06:32:07;0.40;;;0.40;;
31182;SDS011;17813;0.000;0.000;2023-12-20T06:34:35;0.97;;;0.53;;
31182;SDS011;17813;0.000;0.000;2023-12-20T06:37:09;0.70;;;0.70;;
31182;SDS011;17813;0.000;0.000;2023-12-20T06:40:04;0.70;;;0.67;;
31182;SDS011;17813;0.000;0.000;2023-12-20T06:42:34;0.60;;;0.50;;
31182;SDS011;17813;0.000;0.000;2023-12-20T06:45:17;0.60;;;0.60;;
31182;SDS011;17813;0.000;0.000;2023-12-20T06:48:03;0.73;;;0.73;;
31182;SDS011;17813;0.000;0.000;2023-12-20T06:50:49;0.50;;;0.50;;
31182;SDS011;17813;0.000;0.000;2023-12-20T06:53:34;0.60;;;0.50;;
31182;SDS011;17813;0.000;0.000;2023-12-20T06:56:16;0.50;;;0.50;;
31182;SDS011;17813;0.000;0.000;2023-12-20T06:58:56;0.80;;;0.60;;
31182;SDS011;17813;0.000;0.000;2023-12-20T07:01:39;0.60;;;0.60;;
31182;SDS011;17813;0.000;0.000;2023-12-20T07:04:20;0.60;;;0.60;;
31182;SDS011;17813;0.000;0.000;2023-12-20T07:06:59;0.70;;;0.70;;
31182;SDS011;17813;0.000;0.000;2023-12-20T07:09:51;1.10;;;1.00;;
31182;SDS011;17813;0.000;0.000;2023-12-20T07:12:37;1.33;;;1.23;;
31182;SDS011;17813;0.000;0.000;2023-12-20T07:15:12;1.07;;;1.07;;
31182;SDS011;17813;0.000;0.000;2023-12-20T07:21:38;1.37;;;1.27;;
31182;SDS011;17813;0.000;0.000;2023-12-20T07:24:18;1.80;;;1.70;;
31182;SDS011;17813;0.000;0.000;2023-12-20T07:26:49;1.70;;;1.60;;
31182;SDS011;17813;0.000;0.000;2023-12-20T07:29:35;1.60;;;1.50;;
31182;SDS011;17813;0.000;0.000;2023-12-20T07:32:17;1.60;;;1.50;;
31182;SDS011;17813;0.000;0.000;2023-12-20T07:35:09;1.40;;;1.30;;
31182;SDS011;17813;0.000;0.000;2023-12-20T07:37:44;1.50;;;1.40;;
31182;SDS011;17813;0.000;0.000;2023-12-20T07:40:21;2.33;;;1.30;;
31182;SDS011;17813;0.000;0.000;2023-12-20T07:42:53;1.40;;;1.30;;
31182;SDS011;17813;0.000;0.000;2023-12-20T07:45:47;1.63;;;1.37;;
31182;SDS011;17813;0.000;0.000;2023-12-20T07:48:26;1.47;;;1.20;;
31182;SDS011;17813;0.000;0.000;2023-12-20T07:51:14;2.03;;;1.30;;
31182;SDS011;17813;0.000;0.000;2023-12-20T07:54:08;3.13;;;1.50;;
31182;SDS011;17813;0.000;0.000;2023-12-20T07:56:35;1.50;;;1.40;;
31182;SDS011;17813;0.000;0.000;2023-12-20T07:59:19;1.90;;;1.17;;
31182;SDS011;17813;0.000;0.000;2023-12-20T08:02:05;2.23;;;0.80;;
31182;SDS011;17813;0.000;0.000;2023-12-20T08:04:49;0.90;;;0.80;;
31182;SDS011;17813;0.000;0.000;2023-12-20T08:07:36;1.23;;;0.90;;
31182;SDS011;17813;0.000;0.000;2023-12-20T08:10:08;0.97;;;0.90;;
31182;SDS011;17813;0.000;0.000;2023-12-20T08:12:57;0.97;;;0.80;;
31182;SDS011;17813;0.000;0.000;2023-12-20T08:15:59;0.60;;;0.60;;
31182;SDS011;17813;0.000;0.000;2023-12-20T08:18:51;0.83;;;0.83;;
31182;SDS011;17813;0.000;0.000;2023-12-20T08:21:36;0.97;;;0.97;;
31182;SDS011;17813;0.000;0.000;2023-12-20T08:24:19;1.43;;;0.90;;
31182;SDS011;17813;0.000;0.000;2023-12-20T08:27:05;1.00;;;0.80;;
31182;SDS011;17813;0.000;0.000;2023-12-20T08:29:49;1.40;;;0.80;;
31182;SDS011;17813;0.000;0.000;2023-12-20T08:32:16;0.80;;;0.80;;
31182;SDS011;17813;0.000;0.000;2023-12-20T08:34:52;1.23;;;0.90;;
31182;SDS011;17813;0.000;0.000;2023-12-20T08:37:21;1.13;;;1.07;;
31182;SDS011;17813;0.000;0.000;2023-12-20T08:39:51;1.53;;;1.20;;
31182;SDS011;17813;0.000;0.000;2023-12-20T08:42:30;1.27;;;1.17;;
31182;SDS011;17813;0.000;0.000;2023-12-20T08:44:58;1.40;;;1.27;;
31182;SDS011;17813;0.000;0.000;2023-12-20T08:47:39;1.50;;;1.10;;
31182;SDS011;17813;0.000;0.000;2023-12-20T08:50:17;1.40;;;1.23;;
31182;SDS011;17813;0.000;0.000;2023-12-20T08:53:03;2.47;;;1.33;;
31182;SDS011;17813;0.000;0.000;2023-12-20T08:55:43;1.80;;;1.23;;
31182;SDS011;17813;0.000;0.000;2023-12-20T08:58:23;2.13;;;1.10;;
31182;SDS011;17813;0.000;0.000;2023-12-20T09:01:01;2.03;;;1.20;;
31182;SDS011;17813;0.000;0.000;2023-12-20T09:03:39;1.73;;;1.23;;
31182;SDS011;17813;0.000;0.000;2023-12-20T09:06:19;1.23;;;1.00;;
31182;SDS011;17813;0.000;0.000;2023-12-20T09:08:59;2.47;;;1.20;;
31182;SDS011;17813;0.000;0.000;2023-12-20T09:11:49;3.03;;;1.40;;
31182;SDS011;17813;0.000;0.000;2023-12-20T09:14:45;1.63;;;1.30;;
31182;SDS011;17813;0.000;0.000;2023-12-20T09:17:25;2.67;;;1.50;;
31182;SDS011;17813;0.000;0.000;2023-12-20T09:20:03;1.53;;;1.30;;
31182;SDS011;17813;0.000;0.000;2023-12-20T09:22:48;1.87;;;1.30;;
31182;SDS011;17813;0.000;0.000;2023-12-20T09:25:29;4.00;;;1.40;;
31182;SDS011;17813;0.000;0.000;2023-12-20T09:28:23;1.30;;;1.20;;
31182;SDS011;17813;0.000;0.000;2023-12-20T09:31:10;2.30;;;1.40;;
31182;SDS011;17813;0.000;0.000;2023-12-20T09:33:55;2.47;;;1.70;;
31182;SDS011;17813;0.000;0.000;2023-12-20T09:36:39;1.77;;;1.50;;
31182;SDS011;17813;0.000;0.000;2023-12-20T09:39:23;1.90;;;1.70;;
31182;SDS011;17813;0.000;0.000;2023-12-20T09:42:06;2.13;;;1.70;;
31182;SDS011;17813;0.000;0.000;2023-12-20T09:45:03;2.73;;;2.07;;
31182;SDS011;17813;0.000;0.000;2023-12-20T09:47:45;3.13;;;2.13;;
31182;SDS011;17813;0.000;0.000;2023-12-20T09:50:27;4.40;;;1.90;;
31182;SDS011;17813;0.000;0.000;2023-12-20T09:53:14;3.00;;;1.80;;
31182;SDS011;17813;0.000;0.000;2023-12-20T09:55:58;2.77;;;1.80;;
31182;SDS011;17813;0.000;0.000;2023-12-20T09:58:40;2.70;;;1.73;;
31182;SDS011;17813;0.000;0.000;2023-12-20T10:01:32;2.47;;;1.80;;
31182;SDS011;17813;0.000;0.000;2023-12-20T10:04:15;2.33;;;1.80;;
31182;SDS011;17813;0.000;0.000;2023-12-20T10:07:02;1.73;;;1.60;;
31182;SDS011;17813;0.000;0.000;2023-12-20T10:09:54;2.47;;;1.63;;
31182;SDS011;17813;0.000;0.000;2023-12-20T10:13:39;1.83;;;1.50;;
31182;SDS011;17813;0.000;0.000;2023-12-20T10:16:24;2.67;;;1.43;;
31182;SDS011;17813;0.000;0.000;2023-12-20T10:19:10;2.90;;;1.50;;
31182;SDS011;17813;0.000;0.000;2023-12-20T10:21:57;3.53;;;1.50;;
31182;SDS011;17813;0.000;0.000;2023-12-20T10:24:49;2.47;;;1.60;;
31182;SDS011;17813;0.000;0.000;2023-12-20T10:27:26;2.83;;;1.50;;
31182;SDS011;17813;0.000;0.000;2023-12-20T10:29:54;2.20;;;1.37;;
31182;SDS011;17813;0.000;0.000;2023-12-20T10:32:22;2.83;;;1.50;;
31182;SDS011;17813;0.000;0.000;2023-12-20T10:35:01;3.17;;;1.50;;
31182;SDS011;17813;0.000;0.000;2023-12-20T10:37:58;2.23;;;1.33;;
31182;SDS011;17813;0.000;0.000;2023-12-20T10:40:29;2.83;;;1.20;;
31182;SDS011;17813;0.000;0.000;2023-12-20T10:43:08;2.63;;;1.30;;
31182;SDS011;17813;0.000;0.000;2023-12-20T10:45:51;1.97;;;1.20;;
31182;SDS011;17813;0.000;0.000;2023-12-20T10:48:45;1.63;;;1.20;;
31182;SDS011;17813;0.000;0.000;2023-12-20T10:51:32;2.67;;;1.37;;
31182;SDS011;17813;0.000;0.000;2023-12-20T10:54:19;3.50;;;1.30;;
31182;SDS011;17813;0.000;0.000;2023-12-20T10:57:06;3.17;;;1.20;;
31182;SDS011;17813;0.000;0.000;2023-12-20T10:59:37;5.57;;;1.80;;
31182;SDS011;17813;0.000;0.000;2023-12-20T11:02:24;2.30;;;1.40;;
31182;SDS011;17813;0.000;0.000;2023-12-20T11:05:22;3.57;;;1.30;;
31182;SDS011;17813;0.000;0.000;2023-12-20T11:08:10;2.93;;;1.33;;
31182;SDS011;17813;0.000;0.000;2023-12-20T11:14:11;2.90;;;1.43;;
31182;SDS011;17813;0.000;0.000;2023-12-20T11:17:11;3.23;;;1.47;;
31182;SDS011;17813;0.000;0.000;2023-12-20T11:22:37;2.50;;;1.37;;
31182;SDS011;17813;0.000;0.000;2023-12-20T11:25:09;2.10;;;1.20;;
31182;SDS011;17813;0.000;0.000;2023-12-20T11:28:11;2.93;;;1.40;;
31182;SDS011;17813;0.000;0.000;2023-12-20T11:30:57;2.43;;;1.30;;
31182;SDS011;17813;0.000;0.000;2023-12-20T11:33:36;2.80;;;1.50;;
31182;SDS011;17813;0.000;0.000;2023-12-20T11:36:26;2.10;;;1.40;;
31182;SDS011;17813;0.000;0.000;2023-12-20T11:39:27;2.37;;;1.17;;
31182;SDS011;17813;0.000;0.000;2023-12-20T11:41:55;3.23;;;1.27;;
31182;SDS011;17813;0.000;0.000;2023-12-20T11:44:41;2.67;;;1.33;;
31182;SDS011;17813;0.000;0.000;2023-12-20T11:47:10;3.07;;;1.47;;
31182;SDS011;17813;0.000;0.000;2023-12-20T11:49:54;2.50;;;1.20;;
31182;SDS011;17813;0.000;0.000;2023-12-20T11:52:51;3.03;;;1.30;;
31182;SDS011;17813;0.000;0.000;2023-12-20T11:55:37;2.87;;;1.47;;
31182;SDS011;17813;0.000;0.000;2023-12-20T11:58:51;2.40;;;1.30;;
31182;SDS011;17813;0.000;0.000;2023-12-20T12:01:33;1.60;;;1.10;;
31182;SDS011;17813;0.000;0.000;2023-12-20T12:04:07;2.53;;;1.30;;
31182;SDS011;17813;0.000;0.000;2023-12-20T12:06:34;2.23;;;1.03;;
31182;SDS011;17813;0.000;0.000;2023-12-20T12:09:18;1.70;;;1.20;;
31182;SDS011;17813;0.000;0.000;2023-12-20T12:12:14;2.13;;;1.30;;
31182;SDS011;17813;0.000;0.000;2023-12-20T12:15:00;2.53;;;1.50;;
31182;SDS011;17813;0.000;0.000;2023-12-20T12:17:29;2.67;;;1.17;;
31182;SDS011;17813;0.000;0.000;2023-12-20T12:20:03;2.77;;;1.30;;
31182;SDS011;17813;0.000;0.000;2023-12-20T12:23:00;1.87;;;1.20;;
31182;SDS011;17813;0.000;0.000;2023-12-20T12:25:50;3.47;;;1.27;;
31182;SDS011;17813;0.000;0.000;2023-12-20T12:28:25;1.63;;;1.07;;
31182;SDS011;17813;0.000;0.000;2023-12-20T12:35:00;2.73;;;1.23;;
31182;SDS011;17813;0.000;0.000;2023-12-20T12:37:37;2.40;;;1.30;;
31182;SDS011;17813;0.000;0.000;2023-12-20T12:47:54;2.87;;;1.37;;
31182;SDS011;17813;0.000;0.000;2023-12-20T12:50:53;2.80;;;1.30;;
31182;SDS011;17813;0.000;0.000;2023-12-20T12:53:31;1.83;;;1.37;;
31182;SDS011;17813;0.000;0.000;2023-12-20T12:56:16;3.13;;;1.40;;
31182;SDS011;17813;0.000;0.000;2023-12-20T12:58:44;2.07;;;1.37;;
31182;SDS011;17813;0.000;0.000;2023-12-20T13:01:20;2.23;;;2.00;;
31182;SDS011;17813;0.000;0.000;2023-12-20T13:03:47;2.77;;;1.60;;
31182;SDS011;17813;0.000;0.000;2023-12-20T13:06:22;3.00;;;1.53;;
31182;SDS011;17813;0.000;0.000;2023-12-20T13:08:58;2.10;;;1.37;;
31182;SDS011;17813;0.000;0.000;2023-12-20T13:11:58;2.50;;;1.40;;
31182;SDS011;17813;0.000;0.000;2023-12-20T13:14:33;1.70;;;1.20;;
31182;SDS011;17813;0.000;0.000;2023-12-20T13:20:34;1.97;;;1.40;;
31182;SDS011;17813;0.000;0.000;2023-12-20T13:23:33;2.43;;;1.33;;
31182;SDS011;17813;0.000;0.000;2023-12-20T13:26:13;5.37;;;1.70;;
31182;SDS011;17813;0.000;0.000;2023-12-20T13:29:02;1.90;;;1.30;;
31182;SDS011;17813;0.000;0.000;2023-12-20T13:31:41;2.20;;;1.30;;
31182;SDS011;17813;0.000;0.000;2023-12-20T13:34:24;1.87;;;1.40;;
31182;SDS011;17813;0.000;0.000;2023-12-20T13:36:51;2.30;;;1.37;;
31182;SDS011;17813;0.000;0.000;2023-12-20T13:39:33;2.10;;;1.40;;
31182;SDS011;17813;0.000;0.000;2023-12-20T13:42:09;3.47;;;1.50;;
31182;SDS011;17813;0.000;0.000;2023-12-20T13:44:54;2.07;;;1.40;;
31182;SDS011;17813;0.000;0.000;2023-12-20T13:47:27;3.37;;;1.67;;
31182;SDS011;17813;0.000;0.000;2023-12-20T13:50:08;1.63;;;1.40;;
31182;SDS011;17813;0.000;0.000;2023-12-20T13:53:09;2.00;;;1.20;;
31182;SDS011;17813;0.000;0.000;2023-12-20T13:55:38;2.47;;;1.33;;
31182;SDS011;17813;0.000;0.000;2023-12-20T13:58:07;2.60;;;1.30;;
31182;SDS011;17813;0.000;0.000;2023-12-20T14:01:01;1.57;;;1.37;;
31182;SDS011;17813;0.000;0.000;2023-12-20T14:03:29;2.23;;;1.40;;
31182;SDS011;17813;0.000;0.000;2023-12-20T14:06:14;2.67;;;1.50;;
31182;SDS011;17813;0.000;0.000;2023-12-20T14:08:56;2.93;;;1.50;;
31182;SDS011;17813;0.000;0.000;2023-12-20T14:18:59;2.27;;;1.50;;
31182;SDS011;17813;0.000;0.000;2023-12-20T14:21:29;3.63;;;1.70;;
31182;SDS011;17813;0.000;0.000;2023-12-20T14:27:49;1.87;;;1.20;;
31182;SDS011;17813;0.000;0.000;2023-12-20T14:30:35;3.07;;;1.57;;
31182;SDS011;17813;0.000;0.000;2023-12-20T14:33:35;2.20;;;1.53;;
31182;SDS011;17813;0.000;0.000;2023-12-20T14:36:29;3.93;;;1.60;;
31182;SDS011;17813;0.000;0.000;2023-12-20T14:39:07;2.60;;;1.60;;
31182;SDS011;17813;0.000;0.000;2023-12-20T14:41:34;2.50;;;1.50;;
31182;SDS011;17813;0.000;0.000;2023-12-20T14:44:16;3.37;;;1.67;;
31182;SDS011;17813;0.000;0.000;2023-12-20T14:47:01;2.73;;;1.57;;
31182;SDS011;17813;0.000;0.000;2023-12-20T14:50:04;2.60;;;1.40;;
31182;SDS011;17813;0.000;0.000;2023-12-20T14:52:51;2.30;;;1.60;;
31182;SDS011;17813;0.000;0.000;2023-12-20T14:55:46;2.13;;;1.40;;
31182;SDS011;17813;0.000;0.000;2023-12-20T14:58:26;2.50;;;1.43;;
31182;SDS011;17813;0.000;0.000;2023-12-20T15:01:06;3.20;;;1.50;;
31182;SDS011;17813;0.000;0.000;2023-12-20T15:03:34;1.90;;;1.40;;
31182;SDS011;17813;0.000;0.000;2023-12-20T15:06:19;4.10;;;1.40;;
31182;SDS011;17813;0.000;0.000;2023-12-20T15:08:53;3.30;;;1.33;;
31182;SDS011;17813;0.000;0.000;2023-12-20T15:11:34;2.17;;;1.20;;
31182;SDS011;17813;0.000;0.000;2023-12-20T15:14:19;3.53;;;1.70;;
31182;SDS011;17813;0.000;0.000;2023-12-20T15:17:09;3.07;;;1.43;;
31182;SDS011;17813;0.000;0.000;2023-12-20T15:19:43;1.80;;;1.40;;
31182;SDS011;17813;0.000;0.000;2023-12-20T15:22:19;4.10;;;1.67;;
31182;SDS011;17813;0.000;0.000;2023-12-20T15:24:59;1.67;;;1.30;;
31182;SDS011;17813;0.000;0.000;2023-12-20T15:27:33;2.30;;;1.40;;
31182;SDS011;17813;0.000;0.000;2023-12-20T15:30:08;2.80;;;1.70;;
31182;SDS011;17813;0.000;0.000;2023-12-20T15:32:41;2.00;;;1.60;;
31182;SDS011;17813;0.000;0.000;2023-12-20T15:35:29;2.23;;;1.33;;
31182;SDS011;17813;0.000;0.000;2023-12-20T15:38:10;2.77;;;1.50;;
31182;SDS011;17813;0.000;0.000;2023-12-20T15:40:39;2.20;;;1.47;;
31182;SDS011;17813;0.000;0.000;2023-12-20T15:43:09;2.60;;;1.50;;
31182;SDS011;17813;0.000;0.000;2023-12-20T15:45:37;3.07;;;1.80;;
31182;SDS011;17813;0.000;0.000;2023-12-20T15:48:08;4.63;;;1.60;;
31182;SDS011;17813;0.000;0.000;2023-12-20T15:50:58;2.30;;;1.43;;
31182;SDS011;17813;0.000;0.000;2023-12-20T15:53:48;1.60;;;1.30;;
31182;SDS011;17813;0.000;0.000;2023-12-20T15:56:25;3.33;;;1.60;;
31182;SDS011;17813;0.000;0.000;2023-12-20T15:58:54;2.43;;;1.50;;
31182;SDS011;17813;0.000;0.000;2023-12-20T16:01:31;2.57;;;1.60;;
31182;SDS011;17813;0.000;0.000;2023-12-20T16:04:22;4.10;;;1.50;;
31182;SDS011;17813;0.000;0.000;2023-12-20T16:07:06;2.77;;;1.33;;
31182;SDS011;17813;0.000;0.000;2023-12-20T16:09:40;3.37;;;1.53;;
31182;SDS011;17813;0.000;0.000;2023-12-20T16:12:21;3.77;;;1.70;;
31182;SDS011;17813;0.000;0.000;2023-12-20T16:14:49;2.50;;;1.50;;
31182;SDS011;17813;0.000;0.000;2023-12-20T16:17:17;2.43;;;1.20;;
31182;SDS011;17813;0.000;0.000;2023-12-20T16:20:03;3.43;;;1.73;;
31182;SDS011;17813;0.000;0.000;2023-12-20T16:22:39;2.70;;;1.60;;
31182;SDS011;17813;0.000;0.000;2023-12-20T16:25:12;2.67;;;1.40;;
31182;SDS011;17813;0.000;0.000;2023-12-20T16:27:58;2.03;;;1.33;;
31182;SDS011;17813;0.000;0.000;2023-12-20T16:30:43;3.73;;;1.67;;
31182;SDS011;17813;0.000;0.000;2023-12-20T16:33:21;2.87;;;1.40;;
31182;SDS011;17813;0.000;0.000;2023-12-20T16:35:48;2.40;;;1.53;;
31182;SDS011;17813;0.000;0.000;2023-12-20T16:38:25;3.63;;;1.50;;
31182;SDS011;17813;0.000;0.000;2023-12-20T16:41:10;3.00;;;1.60;;
31182;SDS011;17813;0.000;0.000;2023-12-20T16:43:43;3.07;;;1.60;;
31182;SDS011;17813;0.000;0.000;2023-12-20T16:46:18;2.17;;;1.50;;
31182;SDS011;17813;0.000;0.000;2023-12-20T16:48:51;2.10;;;1.47;;
31182;SDS011;17813;0.000;0.000;2023-12-20T16:51:23;2.53;;;1.57;;
31182;SDS011;17813;0.000;0.000;2023-12-20T16:54:00;3.13;;;1.70;;
31182;SDS011;17813;0.000;0.000;2023-12-20T16:56:34;2.00;;;1.47;;